Latest Weather Observations for Canterbury

IDN60901

Issued at 9:25 pm EST Monday 1 September 2014 (issued every 10 minutes, with the page automatically refreshed every 10 minutes)

About weather observations | Map of Sydney area stations | Latest observations for Sydney area | Other Formats
Station Details ID: 066194 Name: CANTERBURY RACECOURSE AWS Lat: -33.91 Lon: 151.11 Height: 3.0 m
Data from the previous 72 hours. | See also: Recent months at Canterbury
Date/Time
EST
Tmp

°C
App
Tmp
°C
Dew
Point
°C
Rel
Hum
%
Delta-T

°C
Wind Press
QNH
hPa
Press
MSL
hPa
Rain
since
9 am
mm
Dir
 
Spd
km/h
Gust
km/h
Spd
kts
Gust
kts
01/09:00pm 15.7 13.6 8.4 62 3.7 NNW 9 13 5 7 - - 0.0
01/08:30pm 14.0 12.9 10.0 77 2.1 NNE 6 9 3 5 - - 0.0
01/08:00pm 13.6 13.5 10.8 83 1.5 N 2 9 1 5 - - 0.0
01/07:30pm 14.4 14.3 9.4 72 2.6 CALM 0 0 0 0 - - 0.0
01/07:00pm 15.5 14.9 9.0 65 3.3 N 2 7 1 4 - - 0.0
01/06:30pm 17.5 16.0 8.4 55 4.7 N 6 7 3 4 - - 0.0
01/06:00pm 18.2 16.1 8.2 52 5.1 N 9 13 5 7 - - 0.0
01/05:30pm 18.9 16.0 8.3 50 5.5 NE 13 20 7 11 - - 0.0
01/05:00pm 19.9 16.7 8.6 48 5.9 NE 15 20 8 11 - - 0.0
01/04:30pm 20.9 18.8 9.8 49 6.0 ENE 11 17 6 9 - - 0.0
01/04:00pm 21.9 19.6 7.3 39 7.5 ENE 9 13 5 7 - - 0.0
01/03:30pm 22.0 20.1 9.2 44 6.8 ENE 9 15 5 8 - - 0.0
01/03:00pm 22.3 20.1 7.7 39 7.6 NE 9 15 5 8 - - 0.0
01/02:30pm 22.5 19.4 5.4 33 8.5 NNE 11 17 6 9 - - 0.0
01/02:00pm 23.5 21.9 6.3 33 8.8 WNW 4 9 2 5 - - 0.0
01/01:30pm 22.7 20.0 5.6 33 8.6 NW 9 17 5 9 - - 0.0
01/01:00pm 21.8 18.5 4.8 33 8.4 WNW 11 20 6 11 - - 0.0
01/12:30pm 20.9 18.1 6.8 40 7.2 NW 11 17 6 9 - - 0.0
01/12:00pm 21.1 18.5 6.2 38 7.5 NNW 9 17 5 9 - - 0.0
01/11:30am 20.4 17.9 6.4 40 7.0 NW 9 13 5 7 - - 0.0
01/11:00am 19.8 17.9 9.1 50 5.6 NW 9 17 5 9 - - 0.0
01/10:30am 18.0 16.9 9.9 59 4.3 WNW 6 13 3 7 - - 0.0
01/10:00am 16.7 15.1 10.3 66 3.4 NW 9 11 5 6 - - 0.0
01/09:30am 15.1 14.1 11.1 77 2.1 WNW 7 13 4 7 - - 0.0
01/09:00am 13.8 12.9 11.5 86 1.2 NW 7 13 4 7 - - -
01/08:58am 13.9 12.8 12.1 89 1.0 NW 9 13 5 7 - - -
01/08:30am 11.8 10.3 10.7 93 0.6 WNW 9 13 5 7 - - -
01/08:00am 11.5 9.7 10.7 95 0.4 W 11 15 6 8 - - -
01/07:56am 11.4 9.5 10.6 95 0.4 W 11 15 6 8 - - -
01/07:41am 11.2 10.0 10.4 95 0.4 WNW 7 11 4 6 - - -
01/07:30am 11.0 9.9 10.5 97 0.3 WNW 7 11 4 6 - - -
01/07:23am 10.9 9.4 10.7 99 0.1 WNW 9 13 5 7 - - -
01/07:05am 10.6 9.4 10.4 99 0.1 WNW 7 9 4 5 - - -
01/07:00am 10.6 9.6 10.4 99 0.1 NW 6 9 3 5 - - -
01/06:45am 10.2 9.1 10.0 99 0.1 NNW 6 6 3 3 - - -
01/06:30am 10.2 9.1 10.0 99 0.1 NW 6 7 3 4 - - 0.0
01/06:00am 9.6 8.4 9.5 99 0.0 NNW 6 7 3 4 - - 0.0
01/05:30am 9.8 8.6 9.7 99 0.0 NNW 6 9 3 5 - - 0.0
01/05:00am 8.8 7.4 8.7 99 0.0 NW 6 7 3 4 - - 0.0
01/04:30am 8.2 7.8 8.1 99 0.0 CALM 0 0 0 0 - - 0.0
01/04:00am 8.5 8.1 8.4 99 0.0 CALM 0 0 0 0 - - 0.0
01/03:30am 8.8 8.5 8.5 98 0.1 CALM 0 0 0 0 - - 0.0
01/03:00am 8.5 8.1 8.4 99 0.0 NW 0 0 0 0 - - 0.0
01/02:54am 9.2 9.0 9.1 99 0.0 CALM 0 0 0 0 - - 0.0
01/02:51am 9.8 9.8 9.7 99 0.0 CALM 0 0 0 0 - - 0.0
01/02:30am 9.0 8.7 8.7 98 0.1 CALM 0 0 0 0 - - 0.0
01/02:00am 9.3 9.1 9.0 98 0.1 CALM 0 0 0 0 - - 0.0
01/01:30am 9.4 9.2 8.9 97 0.2 CALM 0 0 0 0 - - 0.0
01/01:00am 10.2 10.2 9.9 98 0.2 CALM 0 0 0 0 - - 0.0
01/12:30am 10.0 10.0 9.7 98 0.2 CALM 0 0 0 0 - - 0.0
01/12:29am 10.0 10.0 9.7 98 0.2 CALM 0 0 0 0 - - 0.0
01/12:00am 10.3 10.3 9.8 97 0.3 NW 0 0 0 0 - - 0.0
 
Date/Time
EST
Tmp

°C
App
Tmp
°C
Dew
Point
°C
Rel
Hum
%
Delta-T

°C
Wind Press
QNH
hPa
Press
MSL
hPa
Rain
since
9 am
mm
Dir
 
Spd
km/h
Gust
km/h
Spd
kts
Gust
kts
31/11:39pm 10.6 10.7 10.3 98 0.2 CALM 0 0 0 0 - - 0.0
31/11:30pm 10.8 11.0 10.5 98 0.2 CALM 0 0 0 0 - - 0.0
31/11:00pm 10.5 10.6 10.0 97 0.3 CALM 0 0 0 0 - - 0.0
31/10:59pm 10.5 10.6 10.0 97 0.3 CALM 0 0 0 0 - - 0.0
31/10:30pm 11.4 10.6 10.9 97 0.3 NW 6 6 3 3 - - 0.0
31/10:00pm 10.7 10.7 9.9 95 0.4 CALM 0 0 0 0 - - 0.0
31/09:30pm 11.9 11.6 11.3 96 0.3 NW 4 7 2 4 - - 0.0
31/09:00pm 11.4 11.5 10.3 93 0.6 CALM 0 0 0 0 - - 0.0
31/08:51pm 11.5 11.7 10.4 93 0.6 CALM 0 0 0 0 - - 0.0
31/08:30pm 11.6 11.7 10.3 92 0.7 CALM 0 0 0 0 - - 0.0
31/08:27pm 11.7 11.9 10.4 92 0.7 CALM 0 0 0 0 - - 0.0
31/08:00pm 12.0 12.2 10.4 90 0.8 CALM 0 0 0 0 - - 0.0
31/07:30pm 12.9 13.3 11.1 89 0.9 CALM 0 0 0 0 - - 0.0
31/07:00pm 13.5 12.6 10.7 83 1.5 E 6 7 3 4 - - 0.0
31/06:30pm 14.8 14.0 11.6 81 1.7 ENE 7 9 4 5 - - 0.0
31/06:00pm 15.4 14.1 11.4 77 2.1 E 9 13 5 7 - - 0.0
31/05:30pm 16.2 14.2 11.4 73 2.6 E 13 17 7 9 - - 0.0
31/05:00pm 17.0 14.6 11.5 70 3.0 SE 15 20 8 11 - - 0.0
31/04:30pm 17.6 14.6 10.5 63 3.8 SE 17 22 9 12 - - 0.0
31/04:00pm 17.9 15.0 11.0 64 3.7 SE 17 20 9 11 - - 0.0
31/03:30pm 18.2 14.9 11.0 63 3.9 SSE 19 26 10 14 - - 0.0
31/03:00pm 18.5 16.2 11.6 64 3.8 SE 15 20 8 11 - - 0.0
31/02:30pm 18.6 15.8 11.2 62 4.0 SE 17 24 9 13 - - 0.0
31/02:00pm 19.0 16.4 10.8 59 4.4 SE 15 19 8 10 - - 0.0
31/01:30pm 19.3 16.8 11.1 59 4.5 ESE 15 20 8 11 - - 0.0
31/01:00pm 19.3 17.2 11.1 59 4.5 ESE 13 19 7 10 - - 0.0
31/12:30pm 19.5 17.5 11.5 60 4.4 ESE 13 17 7 9 - - 0.0
31/12:00pm 18.9 17.5 9.7 55 4.9 WSW 7 19 4 10 - - 0.0
31/11:30am 18.6 16.6 10.2 58 4.5 S 11 17 6 9 - - 0.0
31/11:00am 18.0 15.5 9.6 58 4.4 W 13 19 7 10 - - 0.0
31/10:30am 17.1 14.9 9.3 60 4.1 WSW 11 19 6 10 - - 0.0
31/10:00am 17.0 15.0 10.1 64 3.6 WSW 11 19 6 10 - - 0.0
31/09:30am 15.6 12.6 9.1 65 3.3 W 15 20 8 11 - - 0.0
31/09:00am 14.9 12.3 9.5 70 2.8 WSW 13 22 7 12 - - 1.2
31/08:30am 13.6 10.0 8.4 71 2.6 W 17 24 9 13 - - 1.2
31/08:00am 13.0 9.4 8.5 74 2.2 W 17 24 9 13 - - 1.2
31/07:30am 12.0 9.1 8.3 78 1.8 W 13 17 7 9 - - 1.2
31/07:00am 12.2 9.4 8.5 78 1.8 WSW 13 20 7 11 - - 1.2
31/06:30am 11.5 9.0 8.2 80 1.6 W 11 17 6 9 - - 1.2
31/06:00am 11.3 8.8 8.2 81 1.5 WSW 11 17 6 9 - - 1.2
31/05:30am 11.1 8.9 8.0 81 1.5 WSW 9 17 5 9 - - 1.2
31/05:00am 11.1 8.6 8.0 81 1.5 W 11 17 6 9 - - 1.2
31/04:30am 11.5 9.0 8.2 80 1.6 W 11 17 6 9 - - 1.2
31/04:00am 11.6 9.1 8.3 80 1.6 WSW 11 17 6 9 - - 1.2
31/03:30am 11.3 8.8 8.3 82 1.5 WSW 11 17 6 9 - - 1.2
31/03:00am 10.3 9.4 7.9 85 1.2 W 2 7 1 4 - - 1.2
31/02:30am 11.1 9.5 8.1 82 1.5 WSW 6 9 3 5 - - 1.2
31/02:00am 11.5 10.0 8.4 81 1.5 WSW 6 9 3 5 - - 1.2
31/01:30am 12.2 10.6 8.7 79 1.7 WSW 7 11 4 6 - - 1.2
31/01:00am 12.5 10.6 9.0 79 1.8 W 9 13 5 7 - - 1.2
31/12:30am 12.6 10.7 8.9 78 1.9 WSW 9 13 5 7 - - 1.2
31/12:00am 12.9 11.1 9.4 79 1.8 WSW 9 13 5 7 - - 1.2
 
Date/Time
EST
Tmp

°C
App
Tmp
°C
Dew
Point
°C
Rel
Hum
%
Delta-T

°C
Wind Press
QNH
hPa
Press
MSL
hPa
Rain
since
9 am
mm
Dir
 
Spd
km/h
Gust
km/h
Spd
kts
Gust
kts
30/11:35pm 13.2 11.1 9.8 80 1.7 W 11 15 6 8 - - 1.2
30/11:30pm 13.1 11.4 9.7 80 1.7 W 9 15 5 8 - - 1.2
30/11:14pm 13.4 10.9 9.6 78 1.9 WSW 13 20 7 11 - - 1.2
30/11:00pm 13.9 11.7 9.3 74 2.3 WSW 11 17 6 9 - - 1.2
30/10:30pm 14.2 12.9 9.8 75 2.3 WSW 7 11 4 6 - - 1.2
30/10:00pm 14.3 11.9 9.9 75 2.3 SW 13 19 7 10 - - 1.2
30/09:30pm 14.2 12.5 9.8 75 2.3 WSW 9 13 5 7 - - 1.2
30/09:00pm 14.3 12.6 9.7 74 2.4 WSW 9 17 5 9 - - 1.2
30/08:30pm 14.6 13.0 10.2 75 2.3 SSW 9 15 5 8 - - 1.2
30/08:00pm 14.8 12.8 10.0 73 2.5 SW 11 17 6 9 - - 1.2
30/07:30pm 14.7 12.3 10.1 74 2.4 SSW 13 24 7 13 - - 1.2
30/07:00pm 14.7 12.4 10.3 75 2.3 SSW 13 24 7 13 - - 1.2
30/06:30pm 14.7 12.4 10.5 76 2.2 SSW 13 22 7 12 - - 1.2
30/06:00pm 14.8 11.8 10.8 77 2.1 SSW 17 28 9 15 - - 1.2
30/05:30pm 14.7 12.3 11.3 80 1.8 SW 15 28 8 15 - - 1.2
30/05:00pm 14.7 11.9 11.5 81 1.7 SSW 17 26 9 14 - - 1.2
30/04:30pm 15.4 12.5 11.0 75 2.3 S 17 24 9 13 - - 1.2
30/04:00pm 15.9 12.5 11.1 73 2.6 S 20 32 11 17 - - 1.2
30/03:30pm 15.9 11.6 10.9 72 2.7 SSW 24 43 13 23 - - 1.2
30/03:10pm 16.0 12.6 11.2 73 2.6 S 20 32 11 17 - - 1.2
30/03:00pm 15.7 12.9 11.5 76 2.3 S 17 30 9 16 - - 1.2
30/02:54pm 15.5 11.9 11.7 78 2.1 S 22 35 12 19 - - 1.2
30/02:30pm 15.7 11.9 11.3 75 2.4 S 22 33 12 18 - - 1.2
30/02:00pm 16.5 13.3 11.2 71 2.9 SSW 19 33 10 18 - - 1.2
30/01:30pm 16.6 12.5 11.3 71 2.9 S 24 33 13 18 - - 1.2
30/01:00pm 16.4 13.2 12.0 75 2.4 SSW 20 33 11 18 - - 1.2
30/12:31pm 15.2 12.2 12.1 82 1.7 SSW 19 26 10 14 - - 1.2
30/12:30pm 15.1 12.1 12.1 82 1.6 SSW 19 26 10 14 - - 1.2
30/12:00pm 14.5 11.4 12.2 86 1.2 SSW 20 32 11 17 - - 1.0
30/11:47am 15.2 12.1 12.1 82 1.7 SSW 20 35 11 19 - - 0.8
30/11:30am 15.6 12.2 12.4 81 1.8 SSW 22 35 12 19 - - 0.8
30/11:00am 15.2 11.3 12.0 81 1.7 SSW 24 44 13 24 - - 0.8
30/10:55am 14.9 10.9 11.9 82 1.6 SSW 24 44 13 24 - - 0.8
30/10:38am 14.5 11.3 11.8 84 1.5 SSW 20 39 11 21 - - 0.8
30/10:30am 14.4 11.0 11.4 82 1.6 SSW 20 39 11 21 - - 0.8
30/10:01am 13.4 10.2 11.1 86 1.2 SSW 19 30 10 16 - - 0.8
30/10:00am 13.4 10.2 11.1 86 1.2 SSW 19 30 10 16 - - 0.8
30/09:30am 13.1 11.0 11.0 87 1.1 SSW 13 19 7 10 - - 0.6
30/09:00am 12.7 10.9 10.9 89 0.9 SW 11 20 6 11 - - 0.6
30/08:36am 12.3 10.1 9.5 83 1.4 WSW 11 17 6 9 - - 0.4
30/08:30am 12.3 9.7 9.3 82 1.5 WSW 13 19 7 10 - - 0.4
30/08:00am 13.1 10.0 10.3 83 1.4 SW 17 26 9 14 - - 0.4
30/07:31am 13.1 9.9 9.9 81 1.6 SW 17 24 9 13 - - 0.4
30/07:30am 13.0 9.8 9.8 81 1.6 SSW 17 24 9 13 - - 0.4
30/07:14am 13.0 9.3 9.6 80 1.7 SSW 19 28 10 15 - - 0.4
30/07:00am 13.3 9.5 9.2 76 2.1 SSW 19 33 10 18 - - 0.4
30/06:54am 13.2 9.8 9.1 76 2.1 SSW 17 28 9 15 - - 0.4
30/06:36am 13.2 9.7 8.9 75 2.2 SSW 17 28 9 15 - - 0.4
30/06:30am 13.1 9.7 9.0 76 2.1 SSW 17 32 9 17 - - 0.4
30/06:00am 13.3 9.8 8.6 73 2.4 SSW 17 30 9 16 - - 0.4
30/05:30am 13.5 9.6 8.6 72 2.5 SSW 19 30 10 16 - - 0.4
30/05:00am 13.3 9.1 8.4 72 2.4 SSW 20 35 11 19 - - 0.4
30/04:30am 13.3 9.1 8.2 71 2.5 SSW 20 35 11 19 - - 0.4
30/04:00am 13.6 9.3 8.0 69 2.8 S 20 39 11 21 - - 0.4
30/03:30am 13.6 9.9 7.8 68 2.9 SSW 17 33 9 18 - - 0.4
30/03:00am 13.7 9.0 7.9 68 2.9 SSW 22 35 12 19 - - 0.4
30/02:30am 12.5 9.5 6.1 65 3.0 WSW 11 17 6 9 - - 0.4
30/02:00am 12.2 8.8 5.8 65 3.0 WSW 13 19 7 10 - - 0.4
30/01:30am 12.6 10.0 6.0 64 3.1 WSW 9 15 5 8 - - 0.4
30/01:00am 12.3 9.2 5.7 64 3.1 WSW 11 17 6 9 - - 0.4
30/12:30am 12.6 9.5 5.5 62 3.3 WSW 11 19 6 10 - - 0.4
30/12:00am 13.7 9.5 5.6 58 3.8 SW 17 32 9 17 - - 0.4
 
Date/Time
EST
Tmp

°C
App
Tmp
°C
Dew
Point
°C
Rel
Hum
%
Delta-T

°C
Wind Press
QNH
hPa
Press
MSL
hPa
Rain
since
9 am
mm
Dir
 
Spd
km/h
Gust
km/h
Spd
kts
Gust
kts
29/11:30pm 13.5 10.0 5.4 58 3.8 SW 13 20 7 11 - - 0.4
29/11:00pm 13.6 9.7 5.5 58 3.8 SW 15 24 8 13 - - 0.4
29/10:30pm 13.6 9.9 6.2 61 3.5 SW 15 22 8 12 - - 0.4
29/10:00pm 13.6 10.3 6.5 62 3.4 SW 13 24 7 13 - - 0.4
29/09:30pm 13.3 10.4 6.4 63 3.3 SW 11 17 6 9 - - 0.4

Latest Capital City Observations: Canberra | Sydney | Melbourne | Brisbane | Adelaide | Perth | Hobart | Darwin

Other Formats:

Comma delimited format used in spreadsheet applications
http://www.bom.gov.au/fwo/IDN60901/IDN60901.94766.axf

JavaScript Object Notation format (JSON) in row-major order
http://www.bom.gov.au/fwo/IDN60901/IDN60901.94766.json